Flight Track Log - Related Links

Times and Time Zones

All times are in EDT time to prevent confusion due to time zone crossing. See the N654DL flight status page for this flight to view local times or setup timezone preferences in your user account.

Time Position Orientation Groundspeed Altitude Reporting Facility
EDT Latitude Longitude Course Direction KTS MPH feet Rate Location/Type
Sat 09:37:20 PM 33.6333 -84.3833 194° South 186 214 3,200  Level Atlanta TRACON
Sat 09:38:20 PM 33.6167 -84.3167 107° East 244 281 6,400 3,300 Climbing Atlanta TRACON
Sat 09:39:00 PM 33.3897 -84.2843 194° South  Level FlightAware Approximate
Sat 09:39:20 PM 33.5500 -84.2667 148° Southeast 282 325 9,800  Level Atlanta TRACON
Sat 09:40:00 PM 33.2775 -84.3171 194° South  Level FlightAware Approximate
Sat 09:40:53 PM 33.4286 -84.3078 196° South 316 364 12,400  Level Atlanta Center
Sat 09:41:00 PM 33.1654 -84.3498 194° South  Level FlightAware Approximate
Sat 09:41:53 PM 33.3306 -84.3297 191° South 359 413 16,900  Level Atlanta Center
Sat 09:42:00 PM 33.0533 -84.3824 194° South  Level FlightAware Approximate
Sat 09:42:53 PM 33.2261 -84.3567 192° South 378 435 18,700  Level Atlanta Center
Sat 09:43:53 PM 33.1072 -84.3414 174° South 411 473 21,100 2,250 Climbing Atlanta Center
Sat 09:44:53 PM 32.9861 -84.3286 175° South 442 509 23,200 1,900 Climbing Atlanta Center
Sat 09:45:53 PM 32.8442 -84.3133 175° South 454 522 24,900 1,650 Climbing Atlanta Center
Sat 09:46:53 PM 32.7253 -84.2981 174° South 467 537 26,500 1,800 Climbing Atlanta Center
Sat 09:47:53 PM 32.5917 -84.2781 173° South 480 552 28,500 2,100 Climbing Atlanta Center
Sat 09:48:53 PM 32.4603 -84.2581 173° South 480 552 30,700 1,976 Climbing Atlanta Center
Sat 09:50:40 PM 32.2242 -84.2236 173° South 476 548 34,000 1,796 Climbing Jacksonville Center
Sat 09:51:40 PM 32.0950 -84.2069 174° South 476 548 35,700 1,500 Climbing Jacksonville Center
Sat 09:52:40 PM 31.9636 -84.1881 173° South 476 548 37,000 650 Climbing Jacksonville Center
Sat 09:53:40 PM 31.8386 -84.1569 168° South 476 548 37,000  Level Jacksonville Center
Sat 09:54:40 PM 31.7097 -84.1208 167° South 471 542 37,000  Level Jacksonville Center
Sat 09:55:40 PM 31.5825 -84.0853 167° South 471 542 37,000  Level Jacksonville Center
Sat 09:56:40 PM 31.4536 -84.0494 167° South 471 542 37,000  Level Jacksonville Center
Sat 09:57:40 PM 31.3264 -84.0114 166° South 471 542 37,000  Level Jacksonville Center
Sat 09:58:40 PM 31.2014 -83.9758 166° South 471 542 37,000  Level Jacksonville Center
Sat 09:59:40 PM 31.0722 -83.9381 166° South 471 542 37,000  Level Jacksonville Center
Sat 10:00:40 PM 30.9475 -83.9003 165° South 471 542 37,000  Level Jacksonville Center
Sat 10:01:40 PM 30.8203 -83.8722 169° South 471 542 37,000  Level Jacksonville Center
Sat 10:02:40 PM 30.6931 -83.8347 166° South 471 542 37,000  Level Jacksonville Center
Sat 10:03:40 PM 30.5661 -83.7997 167° South 471 542 37,000  Level Jacksonville Center
Sat 10:04:40 PM 30.4431 -83.7672 167° South 465 535 37,000  Level Jacksonville Center
Sat 10:05:40 PM 30.3139 -83.7322 167° South 470 541 37,000  Level Jacksonville Center
Sat 10:06:40 PM 30.1867 -83.6975 167° South 470 541 37,000  Level Jacksonville Center
Sat 10:07:40 PM 30.0617 -83.6653 167° South 470 541 37,000  Level Jacksonville Center
Sat 10:08:40 PM 29.9200 -83.6258 166° South 475 547 37,000  Level Jacksonville Center
Sat 10:09:40 PM 29.7928 -83.5914 167° South 470 541 37,000  Level Jacksonville Center
Sat 10:10:40 PM 29.6656 -83.5569 167° South 470 541 37,000  Level Jacksonville Center
Sat 10:11:40 PM 29.5406 -83.5253 168° South 470 541 37,000  Level Jacksonville Center
Sat 10:12:40 PM 29.4111 -83.4908 167° South 470 541 37,000  Level Jacksonville Center
Sat 10:13:40 PM 29.2861 -83.4569 167° South 470 541 37,000  Level Jacksonville Center
Sat 10:14:40 PM 29.1611 -83.4228 167° South 470 541 37,000 -400 Level Jacksonville Center
Sat 10:15:40 PM 29.0358 -83.3914 168° South 470 541 36,200 -1,350 Descending Jacksonville Center
Sat 10:16:40 PM 28.9067 -83.3528 165° South 470 541 34,300 -2,600 Descending Jacksonville Center
Sat 10:17:40 PM 28.7836 -83.3047 161° South 470 541 31,000 -3,550 Descending Jacksonville Center
Sat 10:18:40 PM 28.6606 -83.2569 161° South 470 541 27,200 -3,779 Descending Jacksonville Center
Sat 10:20:14 PM 28.4667 -83.1833 162° South 460 529 21,300 -3,468 Descending Tampa TRACON
Sat 10:21:14 PM 28.3500 -83.1333 159° South 438 504 18,300 -3,000 Descending Tampa TRACON
Sat 10:22:14 PM 28.2500 -83.0833 156° South 411 473 15,300 -3,100 Descending Tampa TRACON
Sat 10:23:14 PM 28.1333 -83.0500 166° South 406 467 12,100 -2,150 Descending Tampa TRACON
Sat 10:24:14 PM 28.0500 -83.0000 152° Southeast 359 413 11,000 -1,000 Descending Tampa TRACON
Sat 10:25:14 PM 27.9667 -82.9500 152° Southeast 297 342 10,100 -1,400 Descending Tampa TRACON
Sat 10:26:14 PM 27.9000 -82.9167 156° South 287 330 8,200 -1,900 Descending Tampa TRACON
Sat 10:27:14 PM 27.8333 -82.8833 156° South 272 313 6,300 -1,800 Descending Tampa TRACON
Sat 10:28:14 PM 27.7667 -82.8333 146° Southeast 261 300 4,600 -1,450 Descending Tampa TRACON
Sat 10:29:14 PM 27.7000 -82.8000 156° South 257 296 3,400 -1,190 Descending Tampa TRACON
Sat 10:30:15 PM 27.6333 -82.7667 156° South 251 289 2,200 -678 Descending Tampa TRACON
Sat 10:31:09 PM 27.5833 -82.7500 164° South 222 255 2,100 -53 Descending Tampa TRACON
Sat 10:32:09 PM 27.5333 -82.7167 149° Southeast 209 241 2,100  Level Tampa TRACON
Sat 10:33:09 PM 27.5000 -82.6667 127° Southeast 179 206 2,100 -150 Level Tampa TRACON
Sat 10:34:09 PM 27.4667 -82.6333 138° Southeast 153 176 1,800 -400 Descending Tampa TRACON
Sat 10:35:09 PM 27.4500 -82.6167 138° Southeast 116 133 1,300 -500 Descending Tampa TRACON

Login

Don't have an account? Register now (free) for customized features, flight alerts, and more!